Gas Defiance — V7PF3 — position and weather

sailwx.info

Track history (hours):
 
Tides and Currents Weather Stations Pressure Air Temp Water Temp Dewpoint Dewpoint Depression Visibility Wind Speed Wind Dir Waves Ship Positions

Gas Defiance

Last reported at 2017-Oct-18 07:51 UTC. Time now 2017-Oct-19 02:18 UTC.
Position S 38°11' E 149°26'.

Length 100 m; draft 4.7 m.

MMSI: 538003218.

Date/timePositionNaut miles runAvg speedWind from/ knotsBaromVisibWave heightAir tempDewpointWater temp
2017-Oct-18 07:51S 38°11' E 149°26'4 9.8
2017-Oct-18 07:25S 38°14' E 149°22'5 9.8
2017-Oct-18 06:52S 38°17' E 149°17'4 9.9
2017-Oct-18 06:30S 38°19' E 149°13'5 9.9
2017-Oct-18 05:59S 38°23' E 149°09'510.3
2017-Oct-18 05:28S 38°26' E 149°03'510.4
2017-Oct-18 04:56S 38°30' E 148°58'510.6
2017-Oct-18 04:29S 38°33' E 148°54'611.4
2017-Oct-18 03:55S 38°38' E 148°48'511.3
2017-Oct-18 03:29S 38°41' E 148°43'511.4
2017-Oct-18 03:00S 38°44' E 148°37'5 9.6
2017-Oct-18 02:30S 38°47' E 148°33'811.2
2017-Oct-18 01:50S 38°52' E 148°26'411.5
2017-Oct-18 01:29S 38°55' E 148°22'611.8
2017-Oct-18 01:00S 38°60' E 148°17'711.8
2017-Oct-18 00:23S 39°04' E 148°10'511.4
2017-Oct-17 23:56S 39°07' E 148°05'511.0
2017-Oct-17 23:30S 39°11' E 148°00'610.8
2017-Oct-17 22:59S 39°14' E 147°55'1210.6
2017-Oct-17 21:50S 39°22' E 147°43'910.4
2017-Oct-17 21:00S 39°28' E 147°34'510.5
2017-Oct-17 20:30S 39°32' E 147°29'710.5
2017-Oct-17 19:50S 39°36' E 147°23'410.8
2017-Oct-17 19:29S 39°38' E 147°19'811.3
2017-Oct-17 18:45S 39°44' E 147°11'511.6
2017-Oct-17 18:19S 39°47' E 147°06'411.9
2017-Oct-17 17:57S 39°50' E 147°02'1812.0
2017-Oct-17 16:26S 40°05' E 146°48'612.0
2017-Oct-17 15:57S 40°11' E 146°46'2012.5
2017-Oct-17 14:21S 40°30' E 146°38'612.5
2017-Oct-17 13:52S 40°36' E 146°36'512.5
2017-Oct-17 13:27S 40°41' E 146°34'612.4
2017-Oct-17 12:58S 40°46' E 146°32'712.6
2017-Oct-17 12:24S 40°53' E 146°29'512.6
2017-Oct-17 12:00S 40°58' E 146°27'812.2
2017-Oct-17 11:20S 41°06' E 146°24'411.0
2017-Oct-17 10:58S 41°10' E 146°22'9 0.4
2017-Oct-16 10:15S 41°04' E 146°31'311.7
2017-Oct-16 10:00S 41°02' E 146°35'1410.9
2017-Oct-16 08:42S 40°55' E 146°51'2112.2
2017-Oct-16 06:57S 40°44' E 147°15'812.0
2017-Oct-16 06:17S 40°40' E 147°24'412.2
2017-Oct-16 05:55S 40°40' E 147°30'812.1
2017-Oct-16 05:16S 40°40' E 147°41'2112.3
2017-Oct-16 03:33S 40°40' E 148°08'511.0
2017-Oct-16 03:07S 40°40' E 148°15'111.0
2017-Oct-16 03:00S 40°41' E 148°16'511.0
2017-Oct-16 02:30S 40°45' E 148°21'711.2
2017-Oct-16 01:53S 40°51' E 148°26'511.2
2017-Oct-16 01:27S 40°55' E 148°30'130 7.8
2017-Oct-15 08:46S 42°55' E 147°23'3 9.3
2017-Oct-15 08:26S 42°52' E 147°21'2 1.4
2017-Oct-15 07:06S 42°51' E 147°20'0 0.0
2017-Oct-15 06:51S 42°51' E 147°20'0 0.0
2017-Oct-15 06:24S 42°51' E 147°20'0 0.0
2017-Oct-15 05:57S 42°51' E 147°20'0 0.0
2017-Oct-15 05:15S 42°51' E 147°20'0 0.0
2017-Oct-15 04:57S 42°51' E 147°20'0 0.0
2017-Oct-14 19:21S 42°51' E 147°20'0 0.0
2017-Oct-14 17:56S 42°51' E 147°20'1 3.2
2017-Oct-14 17:28S 42°52' E 147°21'3 6.7
2017-Oct-14 16:57S 42°55' E 147°23'12 0.6
2017-Oct-13 21:33S 43°07' E 147°28'  
2017-Oct-10 23:56S 33°08' E 152°08'511.7
2017-Oct-10 23:30S 33°03' E 152°11'611.4
2017-Oct-10 23:00S 32°58' E 152°14'611.3
2017-Oct-10 22:30S 32°53' E 152°17'611.2
2017-Oct-10 22:00S 32°49' E 152°21'510.8
2017-Oct-10 21:31S 32°45' E 152°25'511.0
2017-Oct-10 21:01S 32°40' E 152°28'611.7
2017-Oct-10 20:30S 32°36' E 152°33'23911.6
2017-Oct-09 23:49S 28°45' E 153°45'412.7
2017-Oct-09 23:30S 28°41' E 153°45'612.6
2017-Oct-09 23:00S 28°35' E 153°45'612.6
2017-Oct-09 22:31S 28°28' E 153°44'612.9
2017-Oct-09 22:00S 28°22' E 153°44'612.6
2017-Oct-09 21:30S 28°15' E 153°43'612.8
2017-Oct-09 21:01S 28°09' E 153°43'612.5
2017-Oct-09 20:30S 28°03' E 153°43'611.8
2017-Oct-09 20:01S 27°57' E 153°42'612.0
2017-Oct-09 19:30S 27°51' E 153°42'612.7
2017-Oct-09 19:01S 27°45' E 153°42'612.6
2017-Oct-09 18:30S 27°38' E 153°41'2612.8
2017-Oct-09 16:29S 27°13' E 153°38'612.2
2017-Oct-09 15:59S 27°06' E 153°38'711.7
2017-Oct-09 15:25S 26°60' E 153°37'1011.0
2017-Oct-09 14:30S 26°53' E 153°29'811.8
2017-Oct-09 13:51S 26°49' E 153°21'411.8
2017-Oct-09 13:28S 26°47' E 153°17'511.2
2017-Oct-09 12:59S 26°44' E 153°12'5 5.9
2017-Oct-09 12:06S 26°49' E 153°10'110.9
2017-Oct-09 12:00S 26°49' E 153°09'5 9.6
2017-Oct-09 11:30S 26°54' E 153°11'5 9.6
2017-Oct-09 11:01S 26°58' E 153°13'5 9.6
2017-Oct-09 10:31S 27°03' E 153°16'4 8.9
2017-Oct-09 10:01S 27°06' E 153°19'4 8.3
2017-Oct-09 09:30S 27°10' E 153°20'5 9.2
2017-Oct-09 09:00S 27°14' E 153°17'4 7.3
2017-Oct-09 08:30S 27°17' E 153°17'0 0.0
2017-Oct-08 20:24S 27°17' E 153°17'0 0.4
2017-Oct-08 20:00S 27°17' E 153°17'3 6.3
2017-Oct-08 19:30S 27°17' E 153°13'1 1.0
2017-Oct-08 19:00S 27°17' E 153°13'0 0.0
2017-Oct-08 18:30S 27°17' E 153°13'0 0.0
2017-Oct-08 17:57S 27°17' E 153°13'0 0.0
2017-Oct-08 17:30S 27°17' E 153°13'0 0.0
2017-Oct-08 17:00S 27°17' E 153°13'0 0.0
2017-Oct-08 16:30S 27°17' E 153°13'0 0.0
2017-Oct-08 16:00S 27°17' E 153°13'0 0.0
2017-Oct-08 15:30S 27°17' E 153°13'0 0.1
2017-Oct-08 15:00S 27°17' E 153°13'0 0.0
2017-Oct-08 14:30S 27°17' E 153°13'0 0.0
2017-Oct-08 14:00S 27°17' E 153°13'0 0.0
2017-Oct-08 13:27S 27°17' E 153°13'0 0.0
2017-Oct-08 13:00S 27°17' E 153°13'0 0.0
2017-Oct-08 12:30S 27°17' E 153°13'0 0.0
2017-Oct-08 12:00S 27°17' E 153°13'0 0.0
2017-Oct-08 11:30S 27°17' E 153°13'0 0.1
2017-Oct-08 11:00S 27°17' E 153°12'0 0.0
2017-Oct-08 10:27S 27°17' E 153°12'0 0.0
2017-Oct-08 10:00S 27°17' E 153°12'0 0.0
2017-Oct-08 09:30S 27°17' E 153°12'0 0.0
2017-Oct-08 09:00S 27°17' E 153°12'0 0.0
2017-Oct-08 08:30S 27°17' E 153°12'0 0.0
2017-Oct-08 08:00S 27°17' E 153°12'  
Track history (hours):
 
Tides and Currents Weather Stations Pressure Air Temp Water Temp Dewpoint Dewpoint Depression Visibility Wind Speed Wind Dir Waves Ship Positions

Gas Defiance

Last reported at 2017-Oct-18 07:51 UTC. Time now 2017-Oct-19 02:18 UTC.
Position S 38°11' E 149°26'.

Length 100 m; draft 4.7 m.

MMSI: 538003218.

Date/timePositionNaut miles runAvg speedWind from/ knotsBaromVisibWave heightAir tempDewpointWater temp
2017-Oct-18 07:51S 38°11' E 149°26'4 9.8
2017-Oct-18 07:25S 38°14' E 149°22'5 9.8
2017-Oct-18 06:52S 38°17' E 149°17'4 9.9
2017-Oct-18 06:30S 38°19' E 149°13'5 9.9
2017-Oct-18 05:59S 38°23' E 149°09'510.3
2017-Oct-18 05:28S 38°26' E 149°03'510.4
2017-Oct-18 04:56S 38°30' E 148°58'510.6
2017-Oct-18 04:29S 38°33' E 148°54'611.4
2017-Oct-18 03:55S 38°38' E 148°48'511.3
2017-Oct-18 03:29S 38°41' E 148°43'511.4
2017-Oct-18 03:00S 38°44' E 148°37'5 9.6
2017-Oct-18 02:30S 38°47' E 148°33'811.2
2017-Oct-18 01:50S 38°52' E 148°26'411.5
2017-Oct-18 01:29S 38°55' E 148°22'611.8
2017-Oct-18 01:00S 38°60' E 148°17'711.8
2017-Oct-18 00:23S 39°04' E 148°10'511.4
2017-Oct-17 23:56S 39°07' E 148°05'511.0
2017-Oct-17 23:30S 39°11' E 148°00'610.8
2017-Oct-17 22:59S 39°14' E 147°55'1210.6
2017-Oct-17 21:50S 39°22' E 147°43'910.4
2017-Oct-17 21:00S 39°28' E 147°34'510.5
2017-Oct-17 20:30S 39°32' E 147°29'710.5
2017-Oct-17 19:50S 39°36' E 147°23'410.8
2017-Oct-17 19:29S 39°38' E 147°19'811.3
2017-Oct-17 18:45S 39°44' E 147°11'511.6
2017-Oct-17 18:19S 39°47' E 147°06'411.9
2017-Oct-17 17:57S 39°50' E 147°02'1812.0
2017-Oct-17 16:26S 40°05' E 146°48'612.0
2017-Oct-17 15:57S 40°11' E 146°46'2012.5
2017-Oct-17 14:21S 40°30' E 146°38'612.5
2017-Oct-17 13:52S 40°36' E 146°36'512.5
2017-Oct-17 13:27S 40°41' E 146°34'612.4
2017-Oct-17 12:58S 40°46' E 146°32'712.6
2017-Oct-17 12:24S 40°53' E 146°29'512.6
2017-Oct-17 12:00S 40°58' E 146°27'812.2
2017-Oct-17 11:20S 41°06' E 146°24'411.0
2017-Oct-17 10:58S 41°10' E 146°22'9 0.4
2017-Oct-16 10:15S 41°04' E 146°31'311.7
2017-Oct-16 10:00S 41°02' E 146°35'1410.9
2017-Oct-16 08:42S 40°55' E 146°51'2112.2
2017-Oct-16 06:57S 40°44' E 147°15'812.0
2017-Oct-16 06:17S 40°40' E 147°24'412.2
2017-Oct-16 05:55S 40°40' E 147°30'812.1
2017-Oct-16 05:16S 40°40' E 147°41'2112.3
2017-Oct-16 03:33S 40°40' E 148°08'511.0
2017-Oct-16 03:07S 40°40' E 148°15'111.0
2017-Oct-16 03:00S 40°41' E 148°16'511.0
2017-Oct-16 02:30S 40°45' E 148°21'711.2
2017-Oct-16 01:53S 40°51' E 148°26'511.2
2017-Oct-16 01:27S 40°55' E 148°30'130 7.8
2017-Oct-15 08:46S 42°55' E 147°23'3 9.3
2017-Oct-15 08:26S 42°52' E 147°21'2 1.4
2017-Oct-15 07:06S 42°51' E 147°20'0 0.0
2017-Oct-15 06:51S 42°51' E 147°20'0 0.0
2017-Oct-15 06:24S 42°51' E 147°20'0 0.0
2017-Oct-15 05:57S 42°51' E 147°20'0 0.0
2017-Oct-15 05:15S 42°51' E 147°20'0 0.0
2017-Oct-15 04:57S 42°51' E 147°20'0 0.0
2017-Oct-14 19:21S 42°51' E 147°20'0 0.0
2017-Oct-14 17:56S 42°51' E 147°20'1 3.2
2017-Oct-14 17:28S 42°52' E 147°21'3 6.7
2017-Oct-14 16:57S 42°55' E 147°23'12 0.6
2017-Oct-13 21:33S 43°07' E 147°28'  
2017-Oct-10 23:56S 33°08' E 152°08'511.7
2017-Oct-10 23:30S 33°03' E 152°11'611.4
2017-Oct-10 23:00S 32°58' E 152°14'611.3
2017-Oct-10 22:30S 32°53' E 152°17'611.2
2017-Oct-10 22:00S 32°49' E 152°21'510.8
2017-Oct-10 21:31S 32°45' E 152°25'511.0
2017-Oct-10 21:01S 32°40' E 152°28'611.7
2017-Oct-10 20:30S 32°36' E 152°33'23911.6
2017-Oct-09 23:49S 28°45' E 153°45'412.7
2017-Oct-09 23:30S 28°41' E 153°45'612.6
2017-Oct-09 23:00S 28°35' E 153°45'612.6
2017-Oct-09 22:31S 28°28' E 153°44'612.9
2017-Oct-09 22:00S 28°22' E 153°44'612.6
2017-Oct-09 21:30S 28°15' E 153°43'612.8
2017-Oct-09 21:01S 28°09' E 153°43'612.5
2017-Oct-09 20:30S 28°03' E 153°43'611.8
2017-Oct-09 20:01S 27°57' E 153°42'612.0
2017-Oct-09 19:30S 27°51' E 153°42'612.7
2017-Oct-09 19:01S 27°45' E 153°42'612.6
2017-Oct-09 18:30S 27°38' E 153°41'2612.8
2017-Oct-09 16:29S 27°13' E 153°38'612.2
2017-Oct-09 15:59S 27°06' E 153°38'711.7
2017-Oct-09 15:25S 26°60' E 153°37'1011.0
2017-Oct-09 14:30S 26°53' E 153°29'811.8
2017-Oct-09 13:51S 26°49' E 153°21'411.8
2017-Oct-09 13:28S 26°47' E 153°17'511.2
2017-Oct-09 12:59S 26°44' E 153°12'5 5.9
2017-Oct-09 12:06S 26°49' E 153°10'110.9
2017-Oct-09 12:00S 26°49' E 153°09'5 9.6
2017-Oct-09 11:30S 26°54' E 153°11'5 9.6
2017-Oct-09 11:01S 26°58' E 153°13'5 9.6
2017-Oct-09 10:31S 27°03' E 153°16'4 8.9
2017-Oct-09 10:01S 27°06' E 153°19'4 8.3
2017-Oct-09 09:30S 27°10' E 153°20'5 9.2
2017-Oct-09 09:00S 27°14' E 153°17'4 7.3
2017-Oct-09 08:30S 27°17' E 153°17'0 0.0
2017-Oct-08 20:24S 27°17' E 153°17'0 0.4
2017-Oct-08 20:00S 27°17' E 153°17'3 6.3
2017-Oct-08 19:30S 27°17' E 153°13'1 1.0
2017-Oct-08 19:00S 27°17' E 153°13'0 0.0
2017-Oct-08 18:30S 27°17' E 153°13'0 0.0
2017-Oct-08 17:57S 27°17' E 153°13'0 0.0
2017-Oct-08 17:30S 27°17' E 153°13'0 0.0
2017-Oct-08 17:00S 27°17' E 153°13'0 0.0
2017-Oct-08 16:30S 27°17' E 153°13'0 0.0
2017-Oct-08 16:00S 27°17' E 153°13'0 0.0
2017-Oct-08 15:30S 27°17' E 153°13'0 0.1
2017-Oct-08 15:00S 27°17' E 153°13'0 0.0
2017-Oct-08 14:30S 27°17' E 153°13'0 0.0
2017-Oct-08 14:00S 27°17' E 153°13'0 0.0
2017-Oct-08 13:27S 27°17' E 153°13'0 0.0
2017-Oct-08 13:00S 27°17' E 153°13'0 0.0
2017-Oct-08 12:30S 27°17' E 153°13'0 0.0
2017-Oct-08 12:00S 27°17' E 153°13'0 0.0
2017-Oct-08 11:30S 27°17' E 153°13'0 0.1
2017-Oct-08 11:00S 27°17' E 153°12'0 0.0
2017-Oct-08 10:27S 27°17' E 153°12'0 0.0
2017-Oct-08 10:00S 27°17' E 153°12'0 0.0
2017-Oct-08 09:30S 27°17' E 153°12'0 0.0
2017-Oct-08 09:00S 27°17' E 153°12'0 0.0
2017-Oct-08 08:30S 27°17' E 153°12'0 0.0
2017-Oct-08 08:00S 27°17' E 153°12'  

Dump ship's entire track history